sensor_id;sensor_type;location;lat;lon;timestamp;P1;P2;P0
74333;PMS5003;62753;40.394;-80.022;2023-08-07T00:01:14;14;13;
74333;PMS5003;62753;40.394;-80.022;2023-08-07T00:03:39;15;14;
74333;PMS5003;62753;40.394;-80.022;2023-08-07T00:06:04;12;10;
74333;PMS5003;62753;40.394;-80.022;2023-08-07T00:08:30;13;9;
74333;PMS5003;62753;40.394;-80.022;2023-08-07T00:13:20;11;11;
74333;PMS5003;62753;40.394;-80.022;2023-08-07T00:15:45;11;11;
74333;PMS5003;62753;40.394;-80.022;2023-08-07T00:18:11;12;11;
74333;PMS5003;62753;40.394;-80.022;2023-08-07T00:20:35;13;13;
74333;PMS5003;62753;40.394;-80.022;2023-08-07T00:23:01;10;10;
74333;PMS5003;62753;40.394;-80.022;2023-08-07T00:25:26;12;11;
74333;PMS5003;62753;40.394;-80.022;2023-08-07T00:27:52;16;14;
74333;PMS5003;62753;40.394;-80.022;2023-08-07T00:30:17;12;12;
74333;PMS5003;62753;40.394;-80.022;2023-08-07T00:32:42;11;10;
74333;PMS5003;62753;40.394;-80.022;2023-08-07T00:35:07;12;11;
74333;PMS5003;62753;40.394;-80.022;2023-08-07T00:37:33;10;10;
74333;PMS5003;62753;40.394;-80.022;2023-08-07T00:39:58;10;10;
74333;PMS5003;62753;40.394;-80.022;2023-08-07T00:42:24;9;9;
74333;PMS5003;62753;40.394;-80.022;2023-08-07T00:44:49;13;13;
74333;PMS5003;62753;40.394;-80.022;2023-08-07T00:47:14;12;11;
74333;PMS5003;62753;40.394;-80.022;2023-08-07T00:49:39;11;10;
74333;PMS5003;62753;40.394;-80.022;2023-08-07T00:52:05;12;12;
74333;PMS5003;62753;40.394;-80.022;2023-08-07T00:54:31;10;10;
74333;PMS5003;62753;40.394;-80.022;2023-08-07T00:56:56;10;10;
74333;PMS5003;62753;40.394;-80.022;2023-08-07T00:59:20;13;12;
74333;PMS5003;62753;40.394;-80.022;2023-08-07T01:01:46;11;11;
74333;PMS5003;62753;40.394;-80.022;2023-08-07T01:04:11;11;11;
74333;PMS5003;62753;40.394;-80.022;2023-08-07T01:06:36;12;10;
74333;PMS5003;62753;40.394;-80.022;2023-08-07T01:09:01;12;12;
74333;PMS5003;62753;40.394;-80.022;2023-08-07T01:11:28;10;10;
74333;PMS5003;62753;40.394;-80.022;2023-08-07T01:13:54;11;11;
74333;PMS5003;62753;40.394;-80.022;2023-08-07T01:16:17;9;9;
74333;PMS5003;62753;40.394;-80.022;2023-08-07T01:18:42;12;12;
74333;PMS5003;62753;40.394;-80.022;2023-08-07T01:21:08;12;12;
74333;PMS5003;62753;40.394;-80.022;2023-08-07T01:23:32;10;10;
74333;PMS5003;62753;40.394;-80.022;2023-08-07T01:25:57;13;12;
74333;PMS5003;62753;40.394;-80.022;2023-08-07T01:28:27;14;14;
74333;PMS5003;62753;40.394;-80.022;2023-08-07T01:30:49;12;12;
74333;PMS5003;62753;40.394;-80.022;2023-08-07T01:33:15;14;13;
74333;PMS5003;62753;40.394;-80.022;2023-08-07T01:35:40;14;13;
74333;PMS5003;62753;40.394;-80.022;2023-08-07T01:38:04;17;16;
74333;PMS5003;62753;40.394;-80.022;2023-08-07T01:40:29;13;13;
74333;PMS5003;62753;40.394;-80.022;2023-08-07T01:42:54;11;11;
74333;PMS5003;62753;40.394;-80.022;2023-08-07T01:45:23;16;15;
74333;PMS5003;62753;40.394;-80.022;2023-08-07T01:47:45;20;17;
74333;PMS5003;62753;40.394;-80.022;2023-08-07T01:50:11;16;12;
74333;PMS5003;62753;40.394;-80.022;2023-08-07T01:52:36;17;16;
74333;PMS5003;62753;40.394;-80.022;2023-08-07T01:55:01;12;12;
74333;PMS5003;62753;40.394;-80.022;2023-08-07T01:57:27;16;14;
74333;PMS5003;62753;40.394;-80.022;2023-08-07T01:59:52;10;10;
74333;PMS5003;62753;40.394;-80.022;2023-08-07T02:02:17;15;15;
74333;PMS5003;62753;40.394;-80.022;2023-08-07T02:04:42;14;14;
74333;PMS5003;62753;40.394;-80.022;2023-08-07T02:07:08;19;14;
74333;PMS5003;62753;40.394;-80.022;2023-08-07T02:09:34;16;15;
74333;PMS5003;62753;40.394;-80.022;2023-08-07T02:11:59;15;14;
74333;PMS5003;62753;40.394;-80.022;2023-08-07T02:14:25;14;13;
74333;PMS5003;62753;40.394;-80.022;2023-08-07T02:16:49;16;15;
74333;PMS5003;62753;40.394;-80.022;2023-08-07T02:19:15;13;13;
74333;PMS5003;62753;40.394;-80.022;2023-08-07T02:21:40;17;16;
74333;PMS5003;62753;40.394;-80.022;2023-08-07T02:24:05;16;14;
74333;PMS5003;62753;40.394;-80.022;2023-08-07T02:26:30;16;15;
74333;PMS5003;62753;40.394;-80.022;2023-08-07T02:28:56;13;13;
74333;PMS5003;62753;40.394;-80.022;2023-08-07T02:31:21;17;16;
74333;PMS5003;62753;40.394;-80.022;2023-08-07T02:33:47;20;17;
74333;PMS5003;62753;40.394;-80.022;2023-08-07T02:36:12;18;15;
74333;PMS5003;62753;40.394;-80.022;2023-08-07T02:38:38;16;16;
74333;PMS5003;62753;40.394;-80.022;2023-08-07T02:41:03;19;18;
74333;PMS5003;62753;40.394;-80.022;2023-08-07T02:43:28;17;17;
74333;PMS5003;62753;40.394;-80.022;2023-08-07T02:45:54;13;13;
74333;PMS5003;62753;40.394;-80.022;2023-08-07T02:48:19;17;15;
74333;PMS5003;62753;40.394;-80.022;2023-08-07T02:50:44;16;15;
74333;PMS5003;62753;40.394;-80.022;2023-08-07T02:53:09;15;14;
74333;PMS5003;62753;40.394;-80.022;2023-08-07T02:55:34;15;15;
74333;PMS5003;62753;40.394;-80.022;2023-08-07T02:58:00;17;16;
74333;PMS5003;62753;40.394;-80.022;2023-08-07T03:00:26;16;16;
74333;PMS5003;62753;40.394;-80.022;2023-08-07T03:02:51;16;15;
74333;PMS5003;62753;40.394;-80.022;2023-08-07T03:05:16;15;15;
74333;PMS5003;62753;40.394;-80.022;2023-08-07T03:07:41;16;15;
74333;PMS5003;62753;40.394;-80.022;2023-08-07T03:10:07;17;15;
74333;PMS5003;62753;40.394;-80.022;2023-08-07T03:12:32;17;16;
74333;PMS5003;62753;40.394;-80.022;2023-08-07T03:14:57;14;13;
74333;PMS5003;62753;40.394;-80.022;2023-08-07T03:17:23;16;14;
74333;PMS5003;62753;40.394;-80.022;2023-08-07T03:19:48;15;14;
74333;PMS5003;62753;40.394;-80.022;2023-08-07T03:22:14;14;13;
74333;PMS5003;62753;40.394;-80.022;2023-08-07T03:24:39;14;14;
74333;PMS5003;62753;40.394;-80.022;2023-08-07T03:27:05;16;14;
74333;PMS5003;62753;40.394;-80.022;2023-08-07T03:29:31;18;16;
74333;PMS5003;62753;40.394;-80.022;2023-08-07T03:31:56;16;14;
74333;PMS5003;62753;40.394;-80.022;2023-08-07T03:34:21;22;17;
74333;PMS5003;62753;40.394;-80.022;2023-08-07T03:36:47;24;19;
74333;PMS5003;62753;40.394;-80.022;2023-08-07T03:39:13;22;16;
74333;PMS5003;62753;40.394;-80.022;2023-08-07T03:41:38;14;13;
74333;PMS5003;62753;40.394;-80.022;2023-08-07T03:44:03;21;18;
74333;PMS5003;62753;40.394;-80.022;2023-08-07T03:46:30;21;18;
74333;PMS5003;62753;40.394;-80.022;2023-08-07T03:48:54;23;18;
74333;PMS5003;62753;40.394;-80.022;2023-08-07T03:51:20;14;14;
74333;PMS5003;62753;40.394;-80.022;2023-08-07T03:53:45;22;18;
74333;PMS5003;62753;40.394;-80.022;2023-08-07T03:56:10;18;17;
74333;PMS5003;62753;40.394;-80.022;2023-08-07T03:58:36;16;14;
74333;PMS5003;62753;40.394;-80.022;2023-08-07T04:01:02;20;17;
74333;PMS5003;62753;40.394;-80.022;2023-08-07T04:03:27;16;15;
74333;PMS5003;62753;40.394;-80.022;2023-08-07T04:05:53;17;16;
74333;PMS5003;62753;40.394;-80.022;2023-08-07T04:08:18;14;14;
74333;PMS5003;62753;40.394;-80.022;2023-08-07T04:10:43;13;12;
74333;PMS5003;62753;40.394;-80.022;2023-08-07T04:13:08;15;14;
74333;PMS5003;62753;40.394;-80.022;2023-08-07T04:15:33;16;13;
74333;PMS5003;62753;40.394;-80.022;2023-08-07T04:17:58;14;14;
74333;PMS5003;62753;40.394;-80.022;2023-08-07T04:20:24;15;15;
74333;PMS5003;62753;40.394;-80.022;2023-08-07T04:22:49;16;15;
74333;PMS5003;62753;40.394;-80.022;2023-08-07T04:25:15;16;15;
74333;PMS5003;62753;40.394;-80.022;2023-08-07T04:27:40;16;15;
74333;PMS5003;62753;40.394;-80.022;2023-08-07T04:30:07;14;14;
74333;PMS5003;62753;40.394;-80.022;2023-08-07T04:32:32;19;19;
74333;PMS5003;62753;40.394;-80.022;2023-08-07T04:34:57;18;16;
74333;PMS5003;62753;40.394;-80.022;2023-08-07T04:37:22;16;14;
74333;PMS5003;62753;40.394;-80.022;2023-08-07T04:39:47;15;15;
74333;PMS5003;62753;40.394;-80.022;2023-08-07T04:42:13;16;16;
74333;PMS5003;62753;40.394;-80.022;2023-08-07T04:44:38;16;15;
74333;PMS5003;62753;40.394;-80.022;2023-08-07T04:47:04;19;15;
74333;PMS5003;62753;40.394;-80.022;2023-08-07T04:49:29;14;13;
74333;PMS5003;62753;40.394;-80.022;2023-08-07T04:51:55;14;14;
74333;PMS5003;62753;40.394;-80.022;2023-08-07T04:54:20;13;13;
74333;PMS5003;62753;40.394;-80.022;2023-08-07T04:56:45;15;15;
74333;PMS5003;62753;40.394;-80.022;2023-08-07T04:59:10;16;16;
74333;PMS5003;62753;40.394;-80.022;2023-08-07T05:01:35;14;14;
74333;PMS5003;62753;40.394;-80.022;2023-08-07T05:04:01;18;15;
74333;PMS5003;62753;40.394;-80.022;2023-08-07T05:06:27;16;16;
74333;PMS5003;62753;40.394;-80.022;2023-08-07T05:08:52;13;13;
74333;PMS5003;62753;40.394;-80.022;2023-08-07T05:11:17;13;13;
74333;PMS5003;62753;40.394;-80.022;2023-08-07T05:13:42;14;14;
74333;PMS5003;62753;40.394;-80.022;2023-08-07T05:16:07;13;13;
74333;PMS5003;62753;40.394;-80.022;2023-08-07T05:18:33;14;14;
74333;PMS5003;62753;40.394;-80.022;2023-08-07T05:20:58;14;14;
74333;PMS5003;62753;40.394;-80.022;2023-08-07T05:23:23;14;13;
74333;PMS5003;62753;40.394;-80.022;2023-08-07T05:25:49;15;14;
74333;PMS5003;62753;40.394;-80.022;2023-08-07T05:28:15;14;13;
74333;PMS5003;62753;40.394;-80.022;2023-08-07T05:30:39;15;15;
74333;PMS5003;62753;40.394;-80.022;2023-08-07T05:33:05;19;14;
74333;PMS5003;62753;40.394;-80.022;2023-08-07T05:35:31;16;13;
74333;PMS5003;62753;40.394;-80.022;2023-08-07T05:37:57;15;15;
74333;PMS5003;62753;40.394;-80.022;2023-08-07T05:40:22;14;13;
74333;PMS5003;62753;40.394;-80.022;2023-08-07T05:42:47;16;16;
74333;PMS5003;62753;40.394;-80.022;2023-08-07T05:45:12;15;14;
74333;PMS5003;62753;40.394;-80.022;2023-08-07T05:47:37;12;12;
74333;PMS5003;62753;40.394;-80.022;2023-08-07T05:50:04;16;15;
74333;PMS5003;62753;40.394;-80.022;2023-08-07T05:52:28;14;13;
74333;PMS5003;62753;40.394;-80.022;2023-08-07T05:54:53;15;14;
74333;PMS5003;62753;40.394;-80.022;2023-08-07T05:57:18;16;15;
74333;PMS5003;62753;40.394;-80.022;2023-08-07T05:59:44;15;14;
74333;PMS5003;62753;40.394;-80.022;2023-08-07T06:02:10;16;15;
74333;PMS5003;62753;40.394;-80.022;2023-08-07T06:04:35;16;15;
74333;PMS5003;62753;40.394;-80.022;2023-08-07T06:07:00;15;14;
74333;PMS5003;62753;40.394;-80.022;2023-08-07T06:09:26;18;15;
74333;PMS5003;62753;40.394;-80.022;2023-08-07T06:11:51;14;14;
74333;PMS5003;62753;40.394;-80.022;2023-08-07T06:14:16;16;13;
74333;PMS5003;62753;40.394;-80.022;2023-08-07T06:16:41;14;14;
74333;PMS5003;62753;40.394;-80.022;2023-08-07T06:19:06;15;14;
74333;PMS5003;62753;40.394;-80.022;2023-08-07T06:21:32;14;14;
74333;PMS5003;62753;40.394;-80.022;2023-08-07T06:23:58;16;15;
74333;PMS5003;62753;40.394;-80.022;2023-08-07T06:26:23;14;14;
74333;PMS5003;62753;40.394;-80.022;2023-08-07T06:28:49;16;15;
74333;PMS5003;62753;40.394;-80.022;2023-08-07T06:31:15;22;17;
74333;PMS5003;62753;40.394;-80.022;2023-08-07T06:33:40;23;18;
74333;PMS5003;62753;40.394;-80.022;2023-08-07T06:36:07;16;15;
74333;PMS5003;62753;40.394;-80.022;2023-08-07T06:38:32;15;15;
74333;PMS5003;62753;40.394;-80.022;2023-08-07T06:40:58;17;16;
74333;PMS5003;62753;40.394;-80.022;2023-08-07T06:43:23;16;15;
74333;PMS5003;62753;40.394;-80.022;2023-08-07T06:45:49;15;14;
74333;PMS5003;62753;40.394;-80.022;2023-08-07T06:48:14;19;18;
74333;PMS5003;62753;40.394;-80.022;2023-08-07T06:50:40;22;18;
74333;PMS5003;62753;40.394;-80.022;2023-08-07T06:53:05;19;18;
74333;PMS5003;62753;40.394;-80.022;2023-08-07T06:55:31;19;17;
74333;PMS5003;62753;40.394;-80.022;2023-08-07T06:57:56;19;19;
74333;PMS5003;62753;40.394;-80.022;2023-08-07T07:00:22;17;17;
74333;PMS5003;62753;40.394;-80.022;2023-08-07T07:02:47;18;18;
74333;PMS5003;62753;40.394;-80.022;2023-08-07T07:05:12;17;17;
74333;PMS5003;62753;40.394;-80.022;2023-08-07T07:07:38;18;18;
74333;PMS5003;62753;40.394;-80.022;2023-08-07T07:10:04;19;18;
74333;PMS5003;62753;40.394;-80.022;2023-08-07T07:12:29;17;17;
74333;PMS5003;62753;40.394;-80.022;2023-08-07T07:14:54;21;19;
74333;PMS5003;62753;40.394;-80.022;2023-08-07T07:17:20;20;18;
74333;PMS5003;62753;40.394;-80.022;2023-08-07T07:19:46;20;16;
74333;PMS5003;62753;40.394;-80.022;2023-08-07T07:22:11;20;20;
74333;PMS5003;62753;40.394;-80.022;2023-08-07T07:24:37;17;17;
74333;PMS5003;62753;40.394;-80.022;2023-08-07T07:27:02;18;15;
74333;PMS5003;62753;40.394;-80.022;2023-08-07T07:29:27;20;18;
74333;PMS5003;62753;40.394;-80.022;2023-08-07T07:31:53;22;18;
74333;PMS5003;62753;40.394;-80.022;2023-08-07T07:34:18;22;18;
74333;PMS5003;62753;40.394;-80.022;2023-08-07T07:36:43;21;19;
74333;PMS5003;62753;40.394;-80.022;2023-08-07T07:39:09;23;20;
74333;PMS5003;62753;40.394;-80.022;2023-08-07T07:41:35;19;18;
74333;PMS5003;62753;40.394;-80.022;2023-08-07T07:44:00;20;16;
74333;PMS5003;62753;40.394;-80.022;2023-08-07T07:46:25;19;17;
74333;PMS5003;62753;40.394;-80.022;2023-08-07T07:48:51;19;17;
74333;PMS5003;62753;40.394;-80.022;2023-08-07T07:51:16;16;14;
74333;PMS5003;62753;40.394;-80.022;2023-08-07T07:53:42;19;18;
74333;PMS5003;62753;40.394;-80.022;2023-08-07T07:56:07;18;18;
74333;PMS5003;62753;40.394;-80.022;2023-08-07T07:58:33;20;19;
74333;PMS5003;62753;40.394;-80.022;2023-08-07T08:00:58;25;21;
74333;PMS5003;62753;40.394;-80.022;2023-08-07T08:03:23;14;14;
74333;PMS5003;62753;40.394;-80.022;2023-08-07T08:05:50;18;17;
74333;PMS5003;62753;40.394;-80.022;2023-08-07T08:08:15;20;18;
74333;PMS5003;62753;40.394;-80.022;2023-08-07T08:10:40;18;17;
74333;PMS5003;62753;40.394;-80.022;2023-08-07T08:13:08;17;17;
74333;PMS5003;62753;40.394;-80.022;2023-08-07T08:15:30;19;17;
74333;PMS5003;62753;40.394;-80.022;2023-08-07T08:17:56;16;15;
74333;PMS5003;62753;40.394;-80.022;2023-08-07T08:20:21;19;18;
74333;PMS5003;62753;40.394;-80.022;2023-08-07T08:22:47;19;18;
74333;PMS5003;62753;40.394;-80.022;2023-08-07T08:25:12;16;14;
74333;PMS5003;62753;40.394;-80.022;2023-08-07T08:27:38;16;16;
74333;PMS5003;62753;40.394;-80.022;2023-08-07T08:30:04;13;13;
74333;PMS5003;62753;40.394;-80.022;2023-08-07T08:32:29;20;16;
74333;PMS5003;62753;40.394;-80.022;2023-08-07T08:34:55;17;16;
74333;PMS5003;62753;40.394;-80.022;2023-08-07T08:37:21;15;15;
74333;PMS5003;62753;40.394;-80.022;2023-08-07T08:39:46;20;14;
74333;PMS5003;62753;40.394;-80.022;2023-08-07T08:42:11;17;16;
74333;PMS5003;62753;40.394;-80.022;2023-08-07T08:44:37;16;16;
74333;PMS5003;62753;40.394;-80.022;2023-08-07T08:47:01;21;19;
74333;PMS5003;62753;40.394;-80.022;2023-08-07T08:49:28;20;15;
74333;PMS5003;62753;40.394;-80.022;2023-08-07T08:51:52;17;16;
74333;PMS5003;62753;40.394;-80.022;2023-08-07T08:54:18;14;14;
74333;PMS5003;62753;40.394;-80.022;2023-08-07T08:56:44;19;16;
74333;PMS5003;62753;40.394;-80.022;2023-08-07T08:59:09;18;17;
74333;PMS5003;62753;40.394;-80.022;2023-08-07T09:01:34;16;15;
74333;PMS5003;62753;40.394;-80.022;2023-08-07T09:03:59;14;14;
74333;PMS5003;62753;40.394;-80.022;2023-08-07T09:06:25;16;16;
74333;PMS5003;62753;40.394;-80.022;2023-08-07T09:08:51;14;14;
74333;PMS5003;62753;40.394;-80.022;2023-08-07T09:11:16;15;14;
74333;PMS5003;62753;40.394;-80.022;2023-08-07T09:13:42;21;15;
74333;PMS5003;62753;40.394;-80.022;2023-08-07T09:16:08;15;15;
74333;PMS5003;62753;40.394;-80.022;2023-08-07T09:18:33;18;17;
74333;PMS5003;62753;40.394;-80.022;2023-08-07T09:20:59;15;15;
74333;PMS5003;62753;40.394;-80.022;2023-08-07T09:23:25;15;15;
74333;PMS5003;62753;40.394;-80.022;2023-08-07T09:28:16;18;18;
74333;PMS5003;62753;40.394;-80.022;2023-08-07T09:30:42;16;16;
74333;PMS5003;62753;40.394;-80.022;2023-08-07T09:33:07;21;16;
74333;PMS5003;62753;40.394;-80.022;2023-08-07T09:35:33;15;15;
74333;PMS5003;62753;40.394;-80.022;2023-08-07T09:37:58;14;13;
74333;PMS5003;62753;40.394;-80.022;2023-08-07T09:40:23;15;14;
74333;PMS5003;62753;40.394;-80.022;2023-08-07T09:42:50;12;12;
74333;PMS5003;62753;40.394;-80.022;2023-08-07T09:47:39;15;13;
74333;PMS5003;62753;40.394;-80.022;2023-08-07T09:50:05;17;16;
74333;PMS5003;62753;40.394;-80.022;2023-08-07T09:52:30;13;12;
74333;PMS5003;62753;40.394;-80.022;2023-08-07T09:54:56;14;14;
74333;PMS5003;62753;40.394;-80.022;2023-08-07T09:57:21;12;12;
74333;PMS5003;62753;40.394;-80.022;2023-08-07T09:59:46;13;13;
74333;PMS5003;62753;40.394;-80.022;2023-08-07T10:02:12;12;12;
74333;PMS5003;62753;40.394;-80.022;2023-08-07T10:04:37;13;13;
74333;PMS5003;62753;40.394;-80.022;2023-08-07T10:07:02;17;15;
74333;PMS5003;62753;40.394;-80.022;2023-08-07T10:09:27;16;15;
74333;PMS5003;62753;40.394;-80.022;2023-08-07T10:11:52;14;13;
74333;PMS5003;62753;40.394;-80.022;2023-08-07T10:14:17;15;14;
74333;PMS5003;62753;40.394;-80.022;2023-08-07T10:16:42;16;15;
74333;PMS5003;62753;40.394;-80.022;2023-08-07T10:19:08;18;18;
74333;PMS5003;62753;40.394;-80.022;2023-08-07T10:21:33;15;15;
74333;PMS5003;62753;40.394;-80.022;2023-08-07T10:23:59;15;14;
74333;PMS5003;62753;40.394;-80.022;2023-08-07T10:26:24;20;17;
74333;PMS5003;62753;40.394;-80.022;2023-08-07T10:28:49;14;14;
74333;PMS5003;62753;40.394;-80.022;2023-08-07T10:31:15;16;16;
74333;PMS5003;62753;40.394;-80.022;2023-08-07T10:33:40;14;14;
74333;PMS5003;62753;40.394;-80.022;2023-08-07T10:36:08;14;14;
74333;PMS5003;62753;40.394;-80.022;2023-08-07T10:38:31;15;13;
74333;PMS5003;62753;40.394;-80.022;2023-08-07T10:40:58;13;13;
74333;PMS5003;62753;40.394;-80.022;2023-08-07T10:43:21;15;14;
74333;PMS5003;62753;40.394;-80.022;2023-08-07T10:45:46;14;14;
74333;PMS5003;62753;40.394;-80.022;2023-08-07T10:48:12;18;17;
74333;PMS5003;62753;40.394;-80.022;2023-08-07T10:53:02;18;18;
74333;PMS5003;62753;40.394;-80.022;2023-08-07T10:55:31;15;15;
74333;PMS5003;62753;40.394;-80.022;2023-08-07T10:57:53;12;12;
74333;PMS5003;62753;40.394;-80.022;2023-08-07T11:00:21;21;18;
74333;PMS5003;62753;40.394;-80.022;2023-08-07T11:02:43;17;15;
74333;PMS5003;62753;40.394;-80.022;2023-08-07T11:05:08;19;15;
74333;PMS5003;62753;40.394;-80.022;2023-08-07T11:07:34;15;15;
74333;PMS5003;62753;40.394;-80.022;2023-08-07T11:09:59;13;13;
74333;PMS5003;62753;40.394;-80.022;2023-08-07T11:12:24;15;15;
74333;PMS5003;62753;40.394;-80.022;2023-08-07T11:14:49;16;15;
74333;PMS5003;62753;40.394;-80.022;2023-08-07T11:17:16;15;14;
74333;PMS5003;62753;40.394;-80.022;2023-08-07T11:19:40;14;13;
74333;PMS5003;62753;40.394;-80.022;2023-08-07T11:22:05;14;14;
74333;PMS5003;62753;40.394;-80.022;2023-08-07T11:24:31;16;16;
74333;PMS5003;62753;40.394;-80.022;2023-08-07T11:26:56;14;13;
74333;PMS5003;62753;40.394;-80.022;2023-08-07T11:29:21;16;14;
74333;PMS5003;62753;40.394;-80.022;2023-08-07T11:31:46;16;14;
74333;PMS5003;62753;40.394;-80.022;2023-08-07T11:34:11;17;15;
74333;PMS5003;62753;40.394;-80.022;2023-08-07T11:36:40;13;13;
74333;PMS5003;62753;40.394;-80.022;2023-08-07T11:39:02;16;14;
74333;PMS5003;62753;40.394;-80.022;2023-08-07T11:41:31;16;15;
74333;PMS5003;62753;40.394;-80.022;2023-08-07T11:43:54;15;15;
74333;PMS5003;62753;40.394;-80.022;2023-08-07T11:46:19;21;18;
74333;PMS5003;62753;40.394;-80.022;2023-08-07T11:48:45;19;19;
74333;PMS5003;62753;40.394;-80.022;2023-08-07T11:51:10;13;13;
74333;PMS5003;62753;40.394;-80.022;2023-08-07T11:53:37;13;13;
74333;PMS5003;62753;40.394;-80.022;2023-08-07T11:56:02;17;12;
74333;PMS5003;62753;40.394;-80.022;2023-08-07T11:58:33;15;12;
74333;PMS5003;62753;40.394;-80.022;2023-08-07T12:00:53;11;11;
74333;PMS5003;62753;40.394;-80.022;2023-08-07T12:03:24;10;9;
74333;PMS5003;62753;40.394;-80.022;2023-08-07T12:05:43;13;12;
74333;PMS5003;62753;40.394;-80.022;2023-08-07T12:08:08;16;10;
74333;PMS5003;62753;40.394;-80.022;2023-08-07T12:10:35;12;11;
74333;PMS5003;62753;40.394;-80.022;2023-08-07T12:12:59;10;10;
74333;PMS5003;62753;40.394;-80.022;2023-08-07T12:15:24;12;12;
74333;PMS5003;62753;40.394;-80.022;2023-08-07T12:17:49;13;11;
74333;PMS5003;62753;40.394;-80.022;2023-08-07T12:20:15;10;9;
74333;PMS5003;62753;40.394;-80.022;2023-08-07T12:22:40;12;12;
74333;PMS5003;62753;40.394;-80.022;2023-08-07T12:25:06;12;11;
74333;PMS5003;62753;40.394;-80.022;2023-08-07T12:27:30;12;12;
74333;PMS5003;62753;40.394;-80.022;2023-08-07T12:29:56;11;9;
74333;PMS5003;62753;40.394;-80.022;2023-08-07T12:32:22;13;12;
74333;PMS5003;62753;40.394;-80.022;2023-08-07T12:34:46;13;12;
74333;PMS5003;62753;40.394;-80.022;2023-08-07T12:37:11;11;11;
74333;PMS5003;62753;40.394;-80.022;2023-08-07T12:39:37;11;11;
74333;PMS5003;62753;40.394;-80.022;2023-08-07T12:42:02;10;10;
74333;PMS5003;62753;40.394;-80.022;2023-08-07T12:44:27;10;10;
74333;PMS5003;62753;40.394;-80.022;2023-08-07T12:46:53;10;10;
74333;PMS5003;62753;40.394;-80.022;2023-08-07T12:49:19;11;11;
74333;PMS5003;62753;40.394;-80.022;2023-08-07T12:51:43;10;10;
74333;PMS5003;62753;40.394;-80.022;2023-08-07T12:54:09;7;7;
74333;PMS5003;62753;40.394;-80.022;2023-08-07T12:56:33;10;9;
74333;PMS5003;62753;40.394;-80.022;2023-08-07T12:58:59;9;9;
74333;PMS5003;62753;40.394;-80.022;2023-08-07T13:01:24;7;7;
74333;PMS5003;62753;40.394;-80.022;2023-08-07T13:03:49;10;9;
74333;PMS5003;62753;40.394;-80.022;2023-08-07T13:06:15;14;9;
74333;PMS5003;62753;40.394;-80.022;2023-08-07T13:08:40;9;9;
74333;PMS5003;62753;40.394;-80.022;2023-08-07T13:11:05;8;8;
74333;PMS5003;62753;40.394;-80.022;2023-08-07T13:13:30;8;7;
74333;PMS5003;62753;40.394;-80.022;2023-08-07T13:15:55;8;7;
74333;PMS5003;62753;40.394;-80.022;2023-08-07T13:18:21;7;7;
74333;PMS5003;62753;40.394;-80.022;2023-08-07T13:20:45;7;6;
74333;PMS5003;62753;40.394;-80.022;2023-08-07T13:23:11;5;5;
74333;PMS5003;62753;40.394;-80.022;2023-08-07T13:25:36;5;5;
74333;PMS5003;62753;40.394;-80.022;2023-08-07T13:28:01;5;5;
74333;PMS5003;62753;40.394;-80.022;2023-08-07T13:30:26;6;5;
74333;PMS5003;62753;40.394;-80.022;2023-08-07T13:32:51;5;5;
74333;PMS5003;62753;40.394;-80.022;2023-08-07T13:35:16;6;5;
74333;PMS5003;62753;40.394;-80.022;2023-08-07T13:37:42;6;6;
74333;PMS5003;62753;40.394;-80.022;2023-08-07T13:40:07;4;4;
74333;PMS5003;62753;40.394;-80.022;2023-08-07T13:42:32;6;6;
74333;PMS5003;62753;40.394;-80.022;2023-08-07T13:44:57;7;6;
74333;PMS5003;62753;40.394;-80.022;2023-08-07T13:47:22;6;5;
74333;PMS5003;62753;40.394;-80.022;2023-08-07T13:49:47;9;7;
74333;PMS5003;62753;40.394;-80.022;2023-08-07T13:52:12;5;5;
74333;PMS5003;62753;40.394;-80.022;2023-08-07T13:54:37;5;4;
74333;PMS5003;62753;40.394;-80.022;2023-08-07T13:57:02;3;3;
74333;PMS5003;62753;40.394;-80.022;2023-08-07T13:59:28;5;5;
74333;PMS5003;62753;40.394;-80.022;2023-08-07T14:01:52;3;3;
74333;PMS5003;62753;40.394;-80.022;2023-08-07T14:04:17;5;5;
74333;PMS5003;62753;40.394;-80.022;2023-08-07T14:06:42;5;5;
74333;PMS5003;62753;40.394;-80.022;2023-08-07T14:09:08;4;4;
74333;PMS5003;62753;40.394;-80.022;2023-08-07T14:11:33;5;5;
74333;PMS5003;62753;40.394;-80.022;2023-08-07T14:13:58;4;4;
74333;PMS5003;62753;40.394;-80.022;2023-08-07T14:16:23;6;5;
74333;PMS5003;62753;40.394;-80.022;2023-08-07T14:18:48;6;6;
74333;PMS5003;62753;40.394;-80.022;2023-08-07T14:21:14;6;6;
74333;PMS5003;62753;40.394;-80.022;2023-08-07T14:23:38;4;4;
74333;PMS5003;62753;40.394;-80.022;2023-08-07T14:26:03;8;8;
74333;PMS5003;62753;40.394;-80.022;2023-08-07T14:28:28;7;7;
74333;PMS5003;62753;40.394;-80.022;2023-08-07T14:30:56;6;6;
74333;PMS5003;62753;40.394;-80.022;2023-08-07T14:33:19;6;6;
74333;PMS5003;62753;40.394;-80.022;2023-08-07T14:35:44;6;6;
74333;PMS5003;62753;40.394;-80.022;2023-08-07T14:38:09;8;8;
74333;PMS5003;62753;40.394;-80.022;2023-08-07T14:40:34;8;8;
74333;PMS5003;62753;40.394;-80.022;2023-08-07T14:42:59;7;7;
74333;PMS5003;62753;40.394;-80.022;2023-08-07T14:45:25;7;7;
74333;PMS5003;62753;40.394;-80.022;2023-08-07T14:47:49;9;9;
74333;PMS5003;62753;40.394;-80.022;2023-08-07T14:50:15;6;6;
74333;PMS5003;62753;40.394;-80.022;2023-08-07T14:52:40;6;6;
74333;PMS5003;62753;40.394;-80.022;2023-08-07T14:55:05;6;6;
74333;PMS5003;62753;40.394;-80.022;2023-08-07T14:57:30;7;6;
74333;PMS5003;62753;40.394;-80.022;2023-08-07T14:59:55;7;7;
74333;PMS5003;62753;40.394;-80.022;2023-08-07T15:02:20;8;7;
74333;PMS5003;62753;40.394;-80.022;2023-08-07T15:04:45;5;5;
74333;PMS5003;62753;40.394;-80.022;2023-08-07T15:07:10;6;6;
74333;PMS5003;62753;40.394;-80.022;2023-08-07T15:09:35;5;5;
74333;PMS5003;62753;40.394;-80.022;2023-08-07T15:12:00;9;8;
74333;PMS5003;62753;40.394;-80.022;2023-08-07T15:14:25;7;7;
74333;PMS5003;62753;40.394;-80.022;2023-08-07T15:16:50;6;5;
74333;PMS5003;62753;40.394;-80.022;2023-08-07T15:19:15;7;7;
74333;PMS5003;62753;40.394;-80.022;2023-08-07T15:21:41;8;8;
74333;PMS5003;62753;40.394;-80.022;2023-08-07T15:24:06;7;6;
74333;PMS5003;62753;40.394;-80.022;2023-08-07T15:26:31;6;6;
74333;PMS5003;62753;40.394;-80.022;2023-08-07T15:28:56;6;6;
74333;PMS5003;62753;40.394;-80.022;2023-08-07T15:31:21;7;6;
74333;PMS5003;62753;40.394;-80.022;2023-08-07T15:33:46;7;5;
74333;PMS5003;62753;40.394;-80.022;2023-08-07T15:36:11;7;6;
74333;PMS5003;62753;40.394;-80.022;2023-08-07T15:38:37;8;8;
74333;PMS5003;62753;40.394;-80.022;2023-08-07T15:41:01;6;6;
74333;PMS5003;62753;40.394;-80.022;2023-08-07T15:43:27;6;6;
74333;PMS5003;62753;40.394;-80.022;2023-08-07T15:45:52;8;7;
74333;PMS5003;62753;40.394;-80.022;2023-08-07T15:48:17;5;5;